Enaville, Idaho
Current Conditions -  °F | °C
As of 8:55 AM on Friday 28 Nov 2014 (Local Time) from KCOE Reporting Station
Overcast Overcast  
Wind Chill: 52°   Ceiling: 3100
Heat Index: 52°   Visibility: 10mi
Dew Point: 43°   Wind: 23mph
Humidity: 71%   Direction: 240°WSW
Pressure: 29.52"   Gusts: 29mph
Location:  47.5619°N, 116.294°W
Report Text: KCOE 281655Z AUTO 24020G25KT 10SM BKN031 OVC038 11/06 A2952 RMK AO1
Loading
Personal Weather Stations






























Interactive Weather Map New forecast layout! Learn more

10-Day Weather Forecast

Advertisements
Track Severe Weather on mobile